Time;durP1;ratioP1;P1;durP2;ratioP2;P2;SDS_P1;SDS_P2;PMS_P1;PMS_P2;Temp;Humidity;BMP_temperature;BMP_pressure;BME280_temperature;BME280_humidity;BME280_pressure;Samples;Min_cycle;Max_cycle;Signal;HPM_P1;HPM_P2
2021/04/18 00:00:33;;;;;;;10.57;3.70;;;10.50;62.60;;;;;;5053523;28;20040;-62
2021/04/18 00:02:58;;;;;;;18.40;3.78;;;10.40;62.70;;;;;;5054488;28;20031;-62
2021/04/18 00:05:25;;;;;;;10.20;3.75;;;10.40;62.50;;;;;;5031823;28;20033;-61
2021/04/18 00:07:51;;;;;;;12.55;3.97;;;10.40;62.80;;;;;;5054526;28;20104;-62
2021/04/18 00:10:17;;;;;;;21.60;4.20;;;10.40;63.00;;;;;;5048089;28;20104;-61
2021/04/18 00:12:42;;;;;;;11.52;3.80;;;10.40;62.70;;;;;;5028000;28;20056;-62
2021/04/18 00:15:09;;;;;;;12.15;3.55;;;10.40;62.90;;;;;;5036765;28;20472;-61
2021/04/18 00:17:36;;;;;;;11.57;3.28;;;10.30;62.80;;;;;;5021397;28;20108;-61
2021/04/18 00:20:03;;;;;;;11.35;4.32;;;10.30;63.40;;;;;;5031679;28;20029;-62
2021/04/18 00:22:28;;;;;;;14.23;3.90;;;10.30;63.00;;;;;;5048452;28;20020;-61
2021/04/18 00:24:54;;;;;;;13.05;3.60;;;10.30;62.90;;;;;;5012052;28;20146;-61
2021/04/18 00:27:19;;;;;;;11.55;3.47;;;10.30;62.90;;;;;;5033740;28;20539;-62
2021/04/18 00:29:45;;;;;;;11.05;3.67;;;10.30;63.00;;;;;;5027236;28;20104;-62
2021/04/18 00:32:10;;;;;;;18.35;4.28;;;10.30;63.10;;;;;;5059387;28;20032;-62
2021/04/18 00:34:36;;;;;;;18.30;4.45;;;10.30;63.00;;;;;;5054249;28;20029;-62
2021/04/18 00:37:01;;;;;;;11.15;4.38;;;10.20;63.20;;;;;;5051727;28;20064;-62
2021/04/18 00:39:27;;;;;;;10.68;3.35;;;10.20;63.40;;;;;;5046381;28;20112;-62
2021/04/18 00:41:52;;;;;;;12.85;4.10;;;10.20;63.40;;;;;;5054173;28;20104;-62
2021/04/18 00:44:18;;;;;;;11.05;3.85;;;10.20;63.20;;;;;;5054269;28;20468;-62
2021/04/18 00:46:43;;;;;;;9.52;3.33;;;10.20;63.70;;;;;;5060059;28;20079;-62
2021/04/18 00:49:09;;;;;;;9.00;4.05;;;10.10;63.20;;;;;;5048278;28;20032;-62
2021/04/18 00:51:35;;;;;;;10.82;4.40;;;10.20;63.20;;;;;;5057585;28;20280;-62
2021/04/18 00:54:00;;;;;;;10.35;3.83;;;10.10;63.30;;;;;;5036585;28;20047;-62
2021/04/18 00:56:26;;;;;;;12.77;3.72;;;10.10;63.30;;;;;;5053676;28;20028;-61
2021/04/18 00:58:51;;;;;;;12.93;3.88;;;10.10;63.50;;;;;;5016311;28;20037;-62
2021/04/18 01:01:17;;;;;;;13.00;4.03;;;10.10;64.20;;;;;;5010786;28;20073;-61
2021/04/18 01:03:42;;;;;;;11.55;3.58;;;10.10;63.60;;;;;;5032477;28;20070;-62
2021/04/18 01:06:08;;;;;;;12.75;3.97;;;10.10;63.50;;;;;;5041958;28;20083;-62
2021/04/18 01:08:33;;;;;;;8.07;3.50;;;10.10;63.60;;;;;;5058709;28;20452;-61
2021/04/18 01:10:59;;;;;;;13.05;3.15;;;10.10;63.70;;;;;;5058940;28;20029;-61
2021/04/18 01:13:25;;;;;;;11.93;3.60;;;10.00;63.60;;;;;;5052636;28;20017;-61
2021/04/18 01:15:51;;;;;;;8.85;3.60;;;10.00;63.60;;;;;;5062889;28;20024;-61
2021/04/18 01:18:16;;;;;;;11.27;3.47;;;10.00;63.70;;;;;;5028872;28;20041;-62
2021/04/18 01:20:42;;;;;;;9.15;3.72;;;10.00;63.80;;;;;;5057424;28;20027;-62
2021/04/18 01:23:07;;;;;;;12.20;3.38;;;10.00;63.80;;;;;;5029220;28;20025;-61
2021/04/18 01:25:33;;;;;;;10.55;3.30;;;10.00;64.50;;;;;;5057686;28;20108;-61
2021/04/18 01:27:58;;;;;;;9.02;3.40;;;10.00;63.90;;;;;;5029273;28;20857;-62
2021/04/18 01:30:28;;;;;;;11.68;3.22;;;9.90;63.90;;;;;;5061387;28;20048;-61
2021/04/18 01:32:55;;;;;;;8.77;3.13;;;9.90;63.90;;;;;;5056670;28;20036;-62
2021/04/18 01:35:20;;;;;;;10.18;3.70;;;9.90;64.10;;;;;;5023437;28;20249;-62
2021/04/18 01:37:46;;;;;;;9.65;3.60;;;10.10;64.20;;;;;;5057467;28;20296;-61
2021/04/18 01:40:16;;;;;;;11.02;3.85;;;9.90;64.20;;;;;;5039355;28;20078;-62
2021/04/18 01:42:42;;;;;;;11.93;3.05;;;9.90;64.10;;;;;;5050791;28;20029;-62
2021/04/18 01:45:08;;;;;;;10.20;4.00;;;9.90;64.20;;;;;;5052807;28;20039;-62
2021/04/18 01:47:34;;;;;;;11.43;3.28;;;9.80;64.10;;;;;;5057727;28;20052;-62
2021/04/18 01:49:59;;;;;;;11.07;3.47;;;9.80;64.30;;;;;;5043667;28;20033;-62
2021/04/18 01:52:25;;;;;;;5.35;3.50;;;9.80;64.30;;;;;;5036490;28;20037;-62
2021/04/18 01:54:51;;;;;;;6.13;3.03;;;9.90;64.40;;;;;;5020831;28;20032;-62
2021/04/18 01:57:16;;;;;;;10.05;3.63;;;9.80;64.30;;;;;;5037210;28;20472;-62
2021/04/18 01:59:42;;;;;;;9.20;3.10;;;9.80;64.40;;;;;;5021281;28;20227;-62
2021/04/18 02:02:08;;;;;;;7.03;2.97;;;9.80;64.60;;;;;;5051819;28;20021;-62
2021/04/18 02:04:34;;;;;;;8.48;3.17;;;9.80;64.50;;;;;;5042831;28;20025;-62
2021/04/18 02:07:01;;;;;;;10.40;3.97;;;9.80;64.50;;;;;;5020649;28;20020;-62
2021/04/18 02:09:28;;;;;;;7.97;3.15;;;9.80;64.80;;;;;;5036454;28;20059;-62
2021/04/18 02:11:53;;;;;;;6.38;3.03;;;9.80;64.60;;;;;;5020088;28;20280;-62
2021/04/18 02:14:19;;;;;;;7.63;3.47;;;9.70;64.70;;;;;;5055398;28;20029;-62
2021/04/18 02:16:44;;;;;;;6.97;3.15;;;9.70;64.70;;;;;;5054540;28;20025;-62
2021/04/18 02:19:10;;;;;;;6.15;2.95;;;9.70;64.80;;;;;;5058744;28;20029;-61
2021/04/18 02:21:35;;;;;;;8.95;3.15;;;9.70;64.70;;;;;;5019671;28;20037;-62
2021/04/18 02:24:01;;;;;;;8.77;3.28;;;9.70;64.80;;;;;;5057711;28;20024;-62
2021/04/18 02:26:26;;;;;;;7.57;2.83;;;9.70;64.90;;;;;;5063717;28;20033;-62
2021/04/18 02:28:52;;;;;;;6.07;2.80;;;9.70;64.90;;;;;;5049669;28;20291;-62
2021/04/18 02:31:17;;;;;;;10.07;3.28;;;9.70;65.00;;;;;;5043794;28;20029;-62
2021/04/18 02:33:43;;;;;;;10.40;3.20;;;9.60;65.00;;;;;;5044342;28;20028;-62
2021/04/18 02:36:08;;;;;;;9.80;3.28;;;9.70;65.10;;;;;;5043139;28;20465;-62
2021/04/18 02:38:34;;;;;;;6.22;3.47;;;9.70;65.10;;;;;;5037950;28;20273;-62
2021/04/18 02:40:59;;;;;;;6.53;3.38;;;9.60;65.30;;;;;;5022463;28;20511;-62
2021/04/18 02:43:25;;;;;;;9.23;3.15;;;9.60;65.20;;;;;;5055172;28;20107;-62
2021/04/18 02:45:51;;;;;;;8.77;3.05;;;9.70;65.30;;;;;;5055424;28;20511;-61
2021/04/18 02:48:16;;;;;;;10.90;3.30;;;9.60;65.30;;;;;;5073229;28;20670;-61
2021/04/18 02:50:42;;;;;;;7.78;2.75;;;9.60;65.30;;;;;;5068435;28;20029;-61
2021/04/18 02:53:07;;;;;;;7.78;3.10;;;9.60;65.40;;;;;;5080075;28;20356;-62
2021/04/18 02:55:33;;;;;;;9.05;3.40;;;9.60;65.30;;;;;;5080107;28;20074;-62
2021/04/18 02:57:58;;;;;;;8.07;3.75;;;9.60;65.40;;;;;;5066745;28;20104;-62
2021/04/18 03:00:24;;;;;;;5.25;3.17;;;9.60;65.50;;;;;;5053667;28;20032;-62
2021/04/18 03:02:50;;;;;;;6.63;3.20;;;9.60;65.60;;;;;;5053532;28;20039;-61
2021/04/18 03:05:15;;;;;;;8.73;3.70;;;9.60;65.70;;;;;;5075419;28;20033;-62
2021/04/18 03:07:41;;;;;;;7.72;3.45;;;9.60;65.70;;;;;;5076924;28;20493;-62
2021/04/18 03:10:07;;;;;;;8.38;3.47;;;9.50;65.70;;;;;;5060337;28;20024;-61
2021/04/18 03:12:32;;;;;;;5.35;2.80;;;9.60;65.90;;;;;;5070731;28;20028;-62
2021/04/18 03:14:58;;;;;;;7.15;2.95;;;9.50;65.80;;;;;;5057967;28;20039;-62
2021/04/18 03:17:23;;;;;;;6.65;2.88;;;9.60;65.70;;;;;;5060300;28;20020;-64
2021/04/18 03:19:49;;;;;;;6.38;3.15;;;9.50;65.80;;;;;;5064896;28;20050;-61
2021/04/18 03:22:15;;;;;;;10.13;3.85;;;9.50;65.90;;;;;;5067922;28;20058;-62
2021/04/18 03:24:41;;;;;;;4.75;3.22;;;9.50;65.90;;;;;;5061383;28;20501;-62
2021/04/18 03:27:07;;;;;;;11.45;3.83;;;9.50;66.00;;;;;;5062870;28;20047;-62
2021/04/18 03:29:32;;;;;;;9.55;3.97;;;9.50;66.00;;;;;;5067739;28;20106;-62
2021/04/18 03:31:58;;;;;;;5.90;3.10;;;9.50;66.00;;;;;;5076003;28;20040;-62
2021/04/18 03:34:23;;;;;;;7.07;3.33;;;9.50;66.10;;;;;;5075460;28;20025;-62
2021/04/18 03:36:49;;;;;;;5.72;2.92;;;9.50;66.00;;;;;;5074601;28;20043;-61
2021/04/18 03:39:14;;;;;;;10.05;3.92;;;9.40;66.00;;;;;;5072136;28;20021;-62
2021/04/18 03:41:40;;;;;;;7.05;3.50;;;9.40;66.10;;;;;;5083248;28;20115;-62
2021/04/18 03:44:06;;;;;;;6.13;3.58;;;9.40;66.10;;;;;;5074720;28;20483;-62
2021/04/18 03:46:31;;;;;;;6.22;3.30;;;9.40;66.10;;;;;;5061123;28;20546;-62
2021/04/18 03:48:57;;;;;;;3.85;3.08;;;9.40;66.10;;;;;;5030494;28;20102;-62
2021/04/18 03:51:22;;;;;;;7.78;2.90;;;9.40;66.20;;;;;;5016422;28;20476;-62
2021/04/18 03:53:48;;;;;;;5.70;3.47;;;9.40;66.20;;;;;;5058979;28;20115;-62
2021/04/18 03:56:13;;;;;;;9.20;3.58;;;9.40;66.20;;;;;;5027439;28;20032;-62
2021/04/18 03:58:40;;;;;;;7.93;4.13;;;9.40;66.30;;;;;;5029896;28;20468;-62
2021/04/18 04:01:06;;;;;;;7.30;3.20;;;9.40;66.30;;;;;;5065386;28;20028;-62
2021/04/18 04:03:31;;;;;;;6.70;3.33;;;9.40;66.40;;;;;;5022847;28;20031;-62
2021/04/18 04:05:57;;;;;;;6.95;3.15;;;9.40;66.40;;;;;;5049000;28;20021;-62
2021/04/18 04:08:22;;;;;;;4.45;2.75;;;9.40;66.40;;;;;;5034298;28;20385;-62
2021/04/18 04:10:48;;;;;;;5.80;2.92;;;9.40;66.50;;;;;;5040424;28;20024;-62
2021/04/18 04:13:13;;;;;;;6.80;3.35;;;9.40;66.50;;;;;;5051738;28;20453;-62
2021/04/18 04:15:39;;;;;;;6.00;3.42;;;9.40;66.50;;;;;;5035656;28;20032;-61
2021/04/18 04:18:04;;;;;;;5.57;3.45;;;9.40;66.60;;;;;;5058646;28;20024;-62
2021/04/18 04:20:30;;;;;;;5.97;3.40;;;9.40;66.60;;;;;;5046797;28;20048;-62
2021/04/18 04:22:55;;;;;;;7.93;3.30;;;9.30;66.50;;;;;;5033336;28;20284;-62
2021/04/18 04:25:21;;;;;;;3.47;2.58;;;9.30;66.60;;;;;;5059377;28;20037;-62
2021/04/18 04:27:47;;;;;;;5.57;3.13;;;9.30;66.70;;;;;;5041725;28;20500;-61
2021/04/18 04:30:13;;;;;;;9.02;3.28;;;9.30;66.60;;;;;;5058540;28;20103;-61
2021/04/18 04:32:39;;;;;;;5.45;3.08;;;9.30;66.60;;;;;;5061272;28;20032;-62
2021/04/18 04:35:05;;;;;;;6.68;3.35;;;9.30;66.60;;;;;;5037069;28;20529;-62
2021/04/18 04:37:30;;;;;;;5.60;2.92;;;9.30;66.90;;;;;;5039851;28;20036;-62
2021/04/18 04:39:56;;;;;;;6.43;3.28;;;9.30;66.80;;;;;;5038303;28;20038;-62
2021/04/18 04:42:21;;;;;;;4.40;2.83;;;9.30;66.80;;;;;;5037453;28;20045;-61
2021/04/18 04:44:47;;;;;;;4.68;3.05;;;9.30;66.80;;;;;;5038955;28;20086;-61
2021/04/18 04:47:12;;;;;;;6.30;3.20;;;9.30;66.90;;;;;;5074911;28;20516;-62
2021/04/18 04:49:38;;;;;;;4.68;3.45;;;9.30;67.00;;;;;;5065403;28;20383;-62
2021/04/18 04:52:03;;;;;;;6.40;2.88;;;9.30;67.10;;;;;;5079636;28;20570;-62
2021/04/18 04:54:29;;;;;;;5.30;3.30;;;9.20;67.10;;;;;;5083683;28;20197;-62
2021/04/18 04:56:54;;;;;;;8.48;3.78;;;9.20;67.20;;;;;;5075539;28;20016;-62
2021/04/18 04:59:20;;;;;;;7.47;3.35;;;9.20;67.10;;;;;;5072432;28;20093;-61
2021/04/18 05:01:45;;;;;;;5.13;3.33;;;9.20;67.20;;;;;;5076610;28;20086;-62
2021/04/18 05:04:11;;;;;;;5.20;2.97;;;9.20;67.10;;;;;;5066144;28;20051;-61
2021/04/18 05:06:36;;;;;;;6.18;3.28;;;9.20;67.90;;;;;;5065868;28;20048;-62
2021/04/18 05:09:03;;;;;;;4.03;2.90;;;9.20;67.20;;;;;;5075301;28;20512;-62
2021/04/18 05:11:28;;;;;;;6.97;3.17;;;9.20;67.20;;;;;;5061591;28;20495;-62
2021/04/18 05:13:54;;;;;;;6.47;3.65;;;9.20;67.30;;;;;;5067809;28;20032;-62
2021/04/18 05:16:19;;;;;;;5.88;3.13;;;9.20;67.30;;;;;;5073744;28;20021;-61
2021/04/18 05:18:45;;;;;;;6.82;3.20;;;9.20;67.20;;;;;;5071469;28;20033;-62
2021/04/18 05:21:11;;;;;;;6.93;3.40;;;9.20;67.40;;;;;;5073594;28;20025;-61
2021/04/18 05:23:37;;;;;;;8.60;3.67;;;9.20;67.40;;;;;;5065332;28;20032;-62
2021/04/18 05:26:03;;;;;;;4.22;3.45;;;9.20;67.40;;;;;;5062805;28;20488;-62
2021/04/18 05:28:28;;;;;;;6.40;3.53;;;9.20;67.40;;;;;;5077327;28;20039;-62
2021/04/18 05:30:55;;;;;;;8.27;3.53;;;9.20;67.40;;;;;;5067229;28;20036;-62
2021/04/18 05:33:21;;;;;;;7.25;3.50;;;9.20;67.50;;;;;;5065481;28;20020;-62
2021/04/18 05:35:46;;;;;;;3.92;2.88;;;9.20;67.40;;;;;;5068791;28;20107;-62
2021/04/18 05:38:12;;;;;;;6.30;3.42;;;9.20;67.50;;;;;;5081907;28;20082;-62
2021/04/18 05:40:37;;;;;;;5.95;3.20;;;9.20;67.50;;;;;;5069351;28;20475;-61
2021/04/18 05:43:03;;;;;;;4.88;3.40;;;9.20;67.70;;;;;;5067220;28;20036;-62
2021/04/18 05:45:28;;;;;;;5.90;3.30;;;9.20;67.60;;;;;;5077999;28;20045;-63
2021/04/18 05:47:54;;;;;;;6.10;3.67;;;9.30;67.70;;;;;;5060953;28;20029;-63
2021/04/18 05:50:19;;;;;;;6.45;3.92;;;9.30;67.70;;;;;;5075967;28;20379;-62
2021/04/18 05:52:45;;;;;;;6.05;4.15;;;9.30;67.80;;;;;;5076695;28;20063;-62
2021/04/18 05:55:10;;;;;;;4.60;3.65;;;9.30;67.80;;;;;;5076678;28;20420;-62
2021/04/18 05:57:36;;;;;;;7.75;3.60;;;9.30;68.50;;;;;;5080962;28;20032;-61
2021/04/18 06:00:04;;;;;;;4.90;3.58;;;9.30;67.80;;;;;;5058553;28;20112;-62
2021/04/18 06:02:29;;;;;;;5.25;3.78;;;9.30;67.90;;;;;;5078381;28;20063;-63
2021/04/18 06:04:55;;;;;;;7.28;4.05;;;9.30;68.00;;;;;;5062212;28;20453;-62
2021/04/18 06:07:20;;;;;;;5.10;3.95;;;9.30;68.00;;;;;;5076924;28;20107;-62
2021/04/18 06:09:46;;;;;;;5.63;3.70;;;9.30;68.00;;;;;;5053841;28;20040;-62
2021/04/18 06:12:11;;;;;;;7.57;4.40;;;9.30;67.90;;;;;;5075179;28;20032;-62
2021/04/18 06:14:37;;;;;;;5.70;3.78;;;9.30;68.20;;;;;;5066676;28;20024;-61
2021/04/18 06:17:03;;;;;;;6.15;4.03;;;9.30;68.00;;;;;;5058290;28;20040;-62
2021/04/18 06:19:28;;;;;;;6.22;4.13;;;9.30;67.90;;;;;;5086538;28;20024;-62
2021/04/18 06:21:56;;;;;;;6.70;4.10;;;9.30;68.10;;;;;;5076018;28;20031;-62
2021/04/18 06:24:21;;;;;;;4.63;3.70;;;9.30;67.90;;;;;;5082207;28;20672;-62
2021/04/18 06:26:47;;;;;;;6.80;4.40;;;9.30;67.80;;;;;;5069161;28;20058;-62
2021/04/18 06:29:12;;;;;;;6.28;4.22;;;9.40;68.10;;;;;;5073277;28;20074;-62
2021/04/18 06:31:38;;;;;;;4.70;3.72;;;9.40;68.10;;;;;;5076041;28;20064;-62
2021/04/18 06:34:03;;;;;;;6.72;4.28;;;9.40;68.00;;;;;;5079168;28;20087;-62
2021/04/18 06:36:31;;;;;;;6.35;4.05;;;9.40;68.00;;;;;;5085549;28;20031;-62
2021/04/18 06:38:56;;;;;;;4.30;3.83;;;9.30;68.00;;;;;;5069091;28;20071;-62
2021/04/18 06:41:22;;;;;;;6.38;4.00;;;9.40;67.90;;;;;;5082147;28;20123;-61
2021/04/18 06:43:48;;;;;;;5.55;4.00;;;9.40;68.00;;;;;;5077917;28;20036;-62
2021/04/18 06:46:18;;;;;;;7.50;4.18;;;9.40;68.10;;;;;;5076301;28;20129;-62
2021/04/18 06:48:47;;;;;;;9.30;4.28;;;9.40;68.10;;;;;;5081348;28;20486;-62
2021/04/18 06:51:17;;;;;;;5.95;3.88;;;9.40;68.00;;;;;;5077750;28;20028;-62
2021/04/18 06:53:43;;;;;;;6.63;3.78;;;9.40;68.00;;;;;;5064141;28;20136;-61
2021/04/18 06:56:08;;;;;;;9.25;4.22;;;9.40;67.70;;;;;;5055377;28;20123;-62
2021/04/18 06:58:34;;;;;;;14.15;4.80;;;9.40;67.70;;;;;;5074825;28;20514;-62
2021/04/18 07:01:00;;;;;;;11.23;4.32;;;9.50;67.90;;;;;;5050086;28;20511;-62
2021/04/18 07:03:26;;;;;;;10.75;4.25;;;9.50;68.00;;;;;;5057705;28;20539;-62
2021/04/18 07:05:54;;;;;;;35.83;5.85;;;9.50;67.60;;;;;;5075642;28;20027;-61
2021/04/18 07:08:27;;;;;;;24.52;5.07;;;9.50;67.60;;;;;;5057921;28;20036;-62
2021/04/18 07:11:09;;;;;;;19.38;4.80;;;9.60;68.00;;;;;;5067687;28;20035;-62
2021/04/18 07:13:34;;;;;;;18.83;5.50;;;9.60;68.00;;;;;;5064028;28;20021;-61
2021/04/18 07:16:00;;;;;;;13.52;5.97;;;9.60;68.00;;;;;;5068998;28;20070;-61
2021/04/18 07:18:39;;;;;;;15.15;8.45;;;9.60;68.60;;;;;;5054334;28;20025;-62
2021/04/18 07:21:05;;;;;;;15.32;6.57;;;9.60;68.40;;;;;;5050825;28;20077;-62
2021/04/18 07:23:33;;;;;;;16.17;6.68;;;9.60;68.60;;;;;;5052528;28;20422;-62
2021/04/18 07:26:15;;;;;;;18.52;7.15;;;9.60;69.00;;;;;;5084148;28;20081;-61
2021/04/18 07:28:40;;;;;;;13.35;6.72;;;9.60;69.40;;;;;;5068861;28;20028;-62
2021/04/18 07:31:06;;;;;;;12.10;6.68;;;9.70;70.20;;;;;;5086057;28;20040;-61
2021/04/18 07:33:31;;;;;;;12.90;7.32;;;9.70;70.10;;;;;;5033422;28;20062;-62
2021/04/18 07:35:57;;;;;;;10.45;6.90;;;9.70;70.00;;;;;;5064036;28;20382;-62
2021/04/18 07:38:25;;;;;;;15.40;6.57;;;9.70;70.50;;;;;;5075302;28;20111;-62
2021/04/18 07:40:52;;;;;;;14.65;6.60;;;9.70;69.60;;;;;;5076067;28;20073;-61
2021/04/18 07:43:18;;;;;;;12.48;6.75;;;9.70;69.60;;;;;;5076456;28;20031;-62
2021/04/18 07:45:45;;;;;;;10.52;6.10;;;9.80;70.10;;;;;;5070372;28;20040;-62
2021/04/18 07:48:12;;;;;;;9.38;5.97;;;9.80;69.80;;;;;;5073235;28;20036;-62
2021/04/18 07:50:37;;;;;;;11.77;6.40;;;9.80;69.90;;;;;;5062704;28;20044;-62
2021/04/18 07:53:03;;;;;;;8.73;6.90;;;9.80;70.00;;;;;;5070488;28;20040;-62
2021/04/18 07:55:29;;;;;;;8.50;6.68;;;9.90;70.10;;;;;;5053422;28;20115;-61
2021/04/18 07:57:55;;;;;;;14.43;7.22;;;9.90;70.30;;;;;;5071638;28;20024;-62
2021/04/18 08:00:21;;;;;;;10.20;6.50;;;9.90;70.40;;;;;;5065834;28;20090;-62
2021/04/18 08:02:50;;;;;;;15.25;7.20;;;9.90;70.20;;;;;;5055961;28;20684;-62
2021/04/18 08:05:16;;;;;;;9.15;7.10;;;10.00;70.50;;;;;;5045872;28;20025;-62
2021/04/18 08:08:06;;;;;;;9.52;7.53;;;10.00;70.60;;;;;;5075744;28;20024;-62
2021/04/18 08:10:42;;;;;;;9.30;6.72;;;10.00;70.80;;;;;;5064236;28;20036;-61
2021/04/18 08:13:20;;;;;;;8.90;7.03;;;10.00;70.90;;;;;;5061508;28;20016;-62
2021/04/18 08:15:56;;;;;;;11.60;6.93;;;10.00;70.50;;;;;;5065164;28;20039;-61
2021/04/18 08:18:31;;;;;;;8.88;7.18;;;10.00;70.60;;;;;;5075151;28;20026;-62
2021/04/18 08:20:58;;;;;;;;;;;10.00;70.70;;;;;;5068302;28;20032;-61
2021/04/18 08:23:36;;;;;;;13.48;7.40;;;10.10;70.30;;;;;;5047825;28;20459;-61
2021/04/18 08:26:08;;;;;;;18.45;7.85;;;10.10;70.40;;;;;;5069770;28;20024;-61
2021/04/18 08:28:55;;;;;;;13.52;8.27;;;10.30;70.80;;;;;;5071037;28;20139;-62
2021/04/18 08:31:39;;;;;;;22.25;8.57;;;10.10;70.80;;;;;;5067578;28;20032;-62
2021/04/18 08:34:05;;;;;;;14.38;8.85;;;10.20;70.90;;;;;;5071041;28;20086;-62
2021/04/18 08:36:34;;;;;;;13.23;7.75;;;10.20;70.90;;;;;;5070810;28;20024;-61
2021/04/18 08:39:00;;;;;;;9.63;7.80;;;10.30;70.90;;;;;;5065597;28;20107;-62
2021/04/18 08:41:37;;;;;;;12.85;8.00;;;10.30;71.00;;;;;;5060509;28;20125;-62
2021/04/18 08:44:15;;;;;;;11.38;8.68;;;10.30;71.40;;;;;;5069274;28;20376;-61
2021/04/18 08:46:41;;;;;;;13.40;9.00;;;10.40;71.10;;;;;;5076908;28;20048;-63
2021/04/18 08:49:07;;;;;;;13.38;7.68;;;10.40;71.20;;;;;;5072327;28;20029;-61
2021/04/18 08:51:32;;;;;;;12.48;9.25;;;10.40;70.90;;;;;;5065101;28;20035;-62
2021/04/18 08:53:59;;;;;;;12.52;8.52;;;10.50;70.90;;;;;;5065027;28;20394;-62
2021/04/18 08:56:51;;;;;;;13.63;8.40;;;10.50;70.80;;;;;;5067565;28;20033;-61
2021/04/18 08:59:18;;;;;;;9.38;8.40;;;10.50;70.50;;;;;;5068613;28;20039;-64
2021/04/18 09:01:58;;;;;;;12.50;8.85;;;10.50;70.60;;;;;;5058618;28;20081;-61
2021/04/18 09:04:24;;;;;;;19.95;9.52;;;10.50;70.40;;;;;;5065114;28;20036;-62
2021/04/18 09:06:49;;;;;;;13.15;7.70;;;10.60;70.40;;;;;;5065961;28;20672;-62
2021/04/18 09:09:15;;;;;;;13.35;8.30;;;10.60;70.30;;;;;;5065587;28;20036;-62
2021/04/18 09:11:43;;;;;;;13.93;8.95;;;10.60;70.30;;;;;;5074090;28;20024;-62
2021/04/18 09:14:08;;;;;;;14.15;8.32;;;10.60;70.40;;;;;;5064584;28;20040;-62
2021/04/18 09:16:35;;;;;;;12.10;8.10;;;10.60;70.30;;;;;;5066991;28;20021;-63
2021/04/18 09:19:21;;;;;;;10.60;7.82;;;10.60;70.00;;;;;;5065910;28;20502;-62
2021/04/18 09:22:26;;;;;;;12.53;8.20;;;10.70;69.90;;;;;;5073741;28;20045;-62
2021/04/18 09:24:52;;;;;;;10.82;8.25;;;10.90;70.70;;;;;;5013451;28;20030;-62
2021/04/18 09:27:26;;;;;;;13.90;8.40;;;10.70;70.00;;;;;;5064277;28;20483;-62
2021/04/18 09:30:00;;;;;;;16.73;8.90;;;10.70;70.00;;;;;;5072048;28;20058;-62
2021/04/18 09:32:27;;;;;;;11.80;9.13;;;10.70;69.90;;;;;;5082150;28;20024;-61
2021/04/18 09:34:52;;;;;;;12.88;8.60;;;10.80;69.90;;;;;;5069384;28;20036;-61
2021/04/18 09:37:26;;;;;;;11.25;8.93;;;10.80;69.90;;;;;;5077352;28;20031;-61
2021/04/18 09:39:56;;;;;;;10.10;8.57;;;10.80;69.90;;;;;;5078599;28;20099;-62
2021/04/18 09:42:22;;;;;;;13.68;8.68;;;10.90;69.80;;;;;;5075663;28;20578;-62
2021/04/18 09:44:50;;;;;;;9.63;7.88;;;10.90;69.70;;;;;;5076004;28;20032;-62
2021/04/18 09:47:17;;;;;;;13.80;8.70;;;10.90;69.60;;;;;;5057227;28;20037;-62
2021/04/18 09:49:45;;;;;;;13.57;8.10;;;11.00;69.60;;;;;;5024619;28;20035;-62
2021/04/18 09:52:10;;;;;;;10.63;8.30;;;11.00;70.20;;;;;;5025169;28;20142;-61
2021/04/18 09:54:36;;;;;;;11.00;8.07;;;11.00;69.40;;;;;;5056450;28;20502;-62
2021/04/18 09:57:15;;;;;;;9.35;8.35;;;11.00;69.40;;;;;;5031446;28;20074;-61
2021/04/18 09:59:41;;;;;;;9.70;8.70;;;11.00;69.30;;;;;;5011648;28;20045;-62
2021/04/18 10:02:13;;;;;;;11.75;8.30;;;11.00;69.20;;;;;;5034847;28;20040;-62
2021/04/18 10:04:39;;;;;;;9.40;8.25;;;11.10;69.30;;;;;;5053990;28;20032;-61
2021/04/18 10:07:05;;;;;;;11.43;8.52;;;11.10;69.30;;;;;;5021701;28;20028;-62
2021/04/18 10:09:53;;;;;;;13.80;7.95;;;11.10;69.20;;;;;;5057894;28;20078;-62
2021/04/18 10:12:18;;;;;;;10.43;9.15;;;11.10;69.10;;;;;;5022133;28;20051;-62
2021/04/18 10:14:44;;;;;;;13.32;9.27;;;11.10;69.00;;;;;;5023641;28;20036;-62
2021/04/18 10:17:10;;;;;;;10.18;9.18;;;11.10;68.90;;;;;;5023135;28;20029;-62
2021/04/18 10:19:49;;;;;;;10.63;9.52;;;11.20;68.90;;;;;;5021305;28;20383;-62
2021/04/18 10:22:14;;;;;;;10.32;9.23;;;11.20;68.80;;;;;;5034522;28;20029;-61
2021/04/18 10:24:46;;;;;;;11.57;10.35;;;11.20;68.80;;;;;;5012121;28;20036;-62
2021/04/18 10:27:13;;;;;;;14.77;8.88;;;11.30;68.60;;;;;;5036486;28;20039;-62
2021/04/18 10:29:39;;;;;;;12.93;10.25;;;11.30;68.60;;;;;;5028702;28;20380;-62
2021/04/18 10:32:05;;;;;;;10.40;9.30;;;11.30;68.50;;;;;;5038827;28;20021;-62
2021/04/18 10:34:30;;;;;;;11.00;9.65;;;11.30;68.40;;;;;;5051215;28;20048;-62
2021/04/18 10:36:56;;;;;;;11.70;10.50;;;11.40;68.30;;;;;;5035807;28;20032;-62
2021/04/18 10:39:22;;;;;;;10.30;9.20;;;11.40;68.30;;;;;;5026431;28;20760;-61
2021/04/18 10:41:48;;;;;;;10.30;9.02;;;11.40;68.20;;;;;;5028928;28;20035;-62
2021/04/18 10:44:16;;;;;;;12.88;10.10;;;11.50;68.10;;;;;;5030954;28;20044;-62
2021/04/18 10:46:45;;;;;;;12.50;9.80;;;11.50;68.00;;;;;;5055816;28;20040;-62
2021/04/18 10:49:10;;;;;;;17.40;10.93;;;11.50;67.90;;;;;;5067692;28;20475;-62
2021/04/18 10:51:36;;;;;;;10.20;9.20;;;11.60;67.90;;;;;;5052889;28;20060;-61
2021/04/18 10:54:02;;;;;;;9.73;8.73;;;11.60;67.80;;;;;;5069186;28;20285;-62
2021/04/18 10:56:28;;;;;;;10.98;9.88;;;11.60;67.70;;;;;;5054956;28;20463;-62
2021/04/18 10:58:53;;;;;;;12.10;9.32;;;11.60;67.60;;;;;;5069478;28;20029;-62
2021/04/18 11:01:19;;;;;;;10.88;9.70;;;11.60;67.50;;;;;;5078122;28;20047;-62
2021/04/18 11:03:44;;;;;;;10.90;9.80;;;11.70;67.60;;;;;;5069887;28;20061;-62
2021/04/18 11:06:10;;;;;;;15.23;10.48;;;11.60;67.50;;;;;;5068594;28;20119;-62
2021/04/18 11:08:35;;;;;;;11.18;10.02;;;11.70;67.40;;;;;;5026036;28;20025;-62
2021/04/18 11:11:01;;;;;;;10.82;9.73;;;11.70;67.30;;;;;;5064683;28;20028;-62
2021/04/18 11:13:26;;;;;;;11.57;9.38;;;11.70;67.20;;;;;;5071962;28;20318;-61
2021/04/18 11:15:52;;;;;;;11.70;9.35;;;11.70;67.10;;;;;;5067145;28;20020;-61
2021/04/18 11:18:18;;;;;;;10.90;9.80;;;11.80;67.10;;;;;;5053270;28;20040;-62
2021/04/18 11:20:43;;;;;;;12.48;9.77;;;11.80;67.10;;;;;;5064541;28;20419;-62
2021/04/18 11:23:11;;;;;;;10.10;8.90;;;11.70;66.80;;;;;;5071490;28;20047;-62
2021/04/18 11:25:36;;;;;;;9.80;8.88;;;11.80;66.80;;;;;;5062821;28;20033;-62
2021/04/18 11:28:02;;;;;;;11.68;8.27;;;11.80;66.60;;;;;;5066919;28;20035;-62
2021/04/18 11:30:27;;;;;;;12.13;8.32;;;11.80;66.40;;;;;;5056311;28;20035;-61
2021/04/18 11:32:53;;;;;;;11.95;8.85;;;11.90;66.40;;;;;;5063937;28;20643;-62
2021/04/18 11:35:18;;;;;;;13.65;8.18;;;11.90;66.70;;;;;;5080733;28;20085;-62
2021/04/18 11:37:44;;;;;;;18.60;8.77;;;11.90;66.50;;;;;;5050661;28;20062;-62
2021/04/18 11:40:11;;;;;;;12.00;9.00;;;11.90;66.20;;;;;;5052579;28;20032;-62
2021/04/18 11:42:36;;;;;;;11.38;8.23;;;11.90;65.90;;;;;;5069188;28;20290;-60
2021/04/18 11:45:03;;;;;;;10.13;7.88;;;12.00;65.90;;;;;;5064833;28;20039;-61
2021/04/18 11:47:29;;;;;;;10.40;7.50;;;12.00;66.10;;;;;;5063177;28;20471;-61
2021/04/18 11:49:55;;;;;;;14.00;8.25;;;12.10;66.00;;;;;;5079175;28;20106;-60
2021/04/18 11:52:20;;;;;;;10.63;8.52;;;12.10;66.00;;;;;;5072473;28;20036;-60
2021/04/18 11:54:46;;;;;;;8.82;7.28;;;12.10;65.90;;;;;;5070322;28;20037;-62
2021/04/18 11:57:11;;;;;;;11.95;7.65;;;12.10;65.60;;;;;;5059787;28;20160;-61
2021/04/18 11:59:37;;;;;;;9.35;7.90;;;12.20;65.50;;;;;;5077754;28;20480;-61
2021/04/18 12:02:02;;;;;;;12.25;7.53;;;12.20;65.40;;;;;;5058605;28;20442;-61
2021/04/18 12:04:28;;;;;;;13.82;6.97;;;12.30;65.20;;;;;;5042561;28;20020;-61
2021/04/18 12:06:53;;;;;;;19.45;10.30;;;12.30;65.00;;;;;;5072867;28;20028;-61
2021/04/18 12:09:19;;;;;;;22.65;12.45;;;12.30;65.00;;;;;;5070366;28;20068;-61
2021/04/18 12:11:45;;;;;;;14.75;9.45;;;12.30;64.90;;;;;;5077775;28;20144;-63
2021/04/18 12:14:11;;;;;;;13.05;8.75;;;12.40;65.00;;;;;;5054431;28;20096;-61
2021/04/18 12:16:37;;;;;;;18.05;8.77;;;12.40;64.80;;;;;;5068933;28;20483;-61
2021/04/18 12:19:02;;;;;;;13.23;9.15;;;12.40;64.90;;;;;;5073021;28;20024;-61
2021/04/18 12:21:28;;;;;;;13.50;8.30;;;12.40;64.80;;;;;;5047895;28;20029;-61
2021/04/18 12:23:55;;;;;;;11.93;8.40;;;12.50;64.50;;;;;;5076185;28;20037;-61
2021/04/18 12:26:21;;;;;;;12.55;8.40;;;12.50;64.30;;;;;;5077442;28;20051;-61
2021/04/18 12:28:46;;;;;;;12.70;7.88;;;12.50;64.20;;;;;;5068212;28;20435;-61
2021/04/18 12:31:12;;;;;;;10.35;8.38;;;12.60;64.10;;;;;;5035251;28;20029;-61
2021/04/18 12:33:37;;;;;;;15.93;7.82;;;12.60;64.00;;;;;;5070178;28;20012;-61
2021/04/18 12:36:05;;;;;;;12.02;8.32;;;12.70;64.00;;;;;;5068445;28;20021;-61
2021/04/18 12:38:30;;;;;;;21.45;9.43;;;12.70;63.90;;;;;;5065270;28;20039;-61
2021/04/18 12:40:56;;;;;;;15.80;8.55;;;12.70;63.70;;;;;;5068315;28;20040;-62
2021/04/18 12:43:21;;;;;;;24.13;9.10;;;12.80;63.60;;;;;;5064321;28;20040;-61